sensor_id;sensor_type;location;lat;lon;timestamp;pressure;altitude;pressure_sealevel;temperature;humidity
46942;BME280;32676;52.630;4.896;2023-02-22T00:00:08;101901.13;;;8.06;80.35
46942;BME280;32676;52.630;4.896;2023-02-22T00:02:43;101909.00;;;8.10;80.25
46942;BME280;32676;52.630;4.896;2023-02-22T00:05:11;101920.31;;;8.12;80.22
46942;BME280;32676;52.630;4.896;2023-02-22T00:07:39;101904.66;;;8.02;80.44
46942;BME280;32676;52.630;4.896;2023-02-22T00:10:06;101911.59;;;8.10;80.59
46942;BME280;32676;52.630;4.896;2023-02-22T00:12:37;101924.66;;;8.16;80.88
46942;BME280;32676;52.630;4.896;2023-02-22T00:15:05;101925.56;;;8.12;80.96
46942;BME280;32676;52.630;4.896;2023-02-22T00:17:31;101917.69;;;8.10;81.12
46942;BME280;32676;52.630;4.896;2023-02-22T00:19:58;101905.47;;;8.11;81.03
46942;BME280;32676;52.630;4.896;2023-02-22T00:22:26;101889.81;;;8.00;80.89
46942;BME280;32676;52.630;4.896;2023-02-22T00:24:52;101895.03;;;8.03;80.77
46942;BME280;32676;52.630;4.896;2023-02-22T00:27:19;101886.28;;;8.07;80.77
46942;BME280;32676;52.630;4.896;2023-02-22T00:29:46;101881.06;;;8.04;80.71
46942;BME280;32676;52.630;4.896;2023-02-22T00:32:13;101877.59;;;8.02;80.69
46942;BME280;32676;52.630;4.896;2023-02-22T00:34:40;101859.28;;;8.00;80.71
46942;BME280;32676;52.630;4.896;2023-02-22T00:37:08;101827.94;;;7.88;80.88
46942;BME280;32676;52.630;4.896;2023-02-22T00:39:36;101828.81;;;7.92;80.76
46942;BME280;32676;52.630;4.896;2023-02-22T00:42:03;101822.72;;;7.90;80.86
46942;BME280;32676;52.630;4.896;2023-02-22T00:44:29;101808.78;;;7.86;80.81
46942;BME280;32676;52.630;4.896;2023-02-22T00:46:57;101806.13;;;7.89;80.88
46942;BME280;32676;52.630;4.896;2023-02-22T00:49:23;101788.72;;;7.83;80.95
46942;BME280;32676;52.630;4.896;2023-02-22T00:51:50;101754.81;;;7.63;80.95
46942;BME280;32676;52.630;4.896;2023-02-22T00:54:16;101792.19;;;7.84;80.90
46942;BME280;32676;52.630;4.896;2023-02-22T00:56:45;101780.84;;;7.82;80.84
46942;BME280;32676;52.630;4.896;2023-02-22T00:59:12;101779.16;;;7.81;80.81
46942;BME280;32676;52.630;4.896;2023-02-22T01:01:38;101769.59;;;7.75;80.90
46942;BME280;32676;52.630;4.896;2023-02-22T01:04:05;101770.44;;;7.79;80.91
46942;BME280;32676;52.630;4.896;2023-02-22T01:06:31;101762.59;;;7.76;81.00
46942;BME280;32676;52.630;4.896;2023-02-22T01:08:58;101772.16;;;7.80;81.38
46942;BME280;32676;52.630;4.896;2023-02-22T01:11:26;101772.19;;;7.77;81.44
46942;BME280;32676;52.630;4.896;2023-02-22T01:13:54;101766.97;;;7.77;81.45
46942;BME280;32676;52.630;4.896;2023-02-22T01:16:22;101761.72;;;7.77;81.53
46942;BME280;32676;52.630;4.896;2023-02-22T01:18:49;101759.13;;;7.75;81.57
46942;BME280;32676;52.630;4.896;2023-02-22T01:21:15;101756.50;;;7.74;81.62
46942;BME280;32676;52.630;4.896;2023-02-22T01:23:43;101758.25;;;7.72;81.66
46942;BME280;32676;52.630;4.896;2023-02-22T01:26:10;101752.13;;;7.74;81.88
46942;BME280;32676;52.630;4.896;2023-02-22T01:28:38;101735.59;;;7.67;81.92
46942;BME280;32676;52.630;4.896;2023-02-22T01:31:06;101737.34;;;7.68;82.27
46942;BME280;32676;52.630;4.896;2023-02-22T01:33:32;101743.44;;;7.72;82.21
46942;BME280;32676;52.630;4.896;2023-02-22T01:35:59;101748.66;;;7.74;82.31
46942;BME280;32676;52.630;4.896;2023-02-22T01:38:25;101737.34;;;7.72;82.44
46942;BME280;32676;52.630;4.896;2023-02-22T01:40:52;101726.00;;;7.69;82.70
46942;BME280;32676;52.630;4.896;2023-02-22T01:43:21;101726.03;;;7.68;82.64
46942;BME280;32676;52.630;4.896;2023-02-22T01:45:58;101723.41;;;7.66;82.69
46942;BME280;32676;52.630;4.896;2023-02-22T01:48:34;101705.09;;;7.63;82.44
46942;BME280;32676;52.630;4.896;2023-02-22T01:51:07;101695.53;;;7.62;82.40
46942;BME280;32676;52.630;4.896;2023-02-22T01:53:39;101690.31;;;7.59;82.41
46942;BME280;32676;52.630;4.896;2023-02-22T01:56:07;101692.03;;;7.60;82.24
46942;BME280;32676;52.630;4.896;2023-02-22T01:58:37;101686.84;;;7.57;82.18
46942;BME280;32676;52.630;4.896;2023-02-22T02:01:07;101706.84;;;7.64;82.16
46942;BME280;32676;52.630;4.896;2023-02-22T02:03:37;101699.03;;;7.61;82.14
46942;BME280;32676;52.630;4.896;2023-02-22T02:06:07;101705.09;;;7.65;82.03
46942;BME280;32676;52.630;4.896;2023-02-22T02:08:44;101697.28;;;7.60;81.91
46942;BME280;32676;52.630;4.896;2023-02-22T02:11:15;101680.72;;;7.60;81.87
46942;BME280;32676;52.630;4.896;2023-02-22T02:13:43;101665.06;;;7.52;81.74
46942;BME280;32676;52.630;4.896;2023-02-22T02:16:10;101657.22;;;7.52;81.83
46942;BME280;32676;52.630;4.896;2023-02-22T02:18:38;101650.25;;;7.51;81.94
46942;BME280;32676;52.630;4.896;2023-02-22T02:21:39;101615.44;;;7.43;82.08
46942;BME280;32676;52.630;4.896;2023-02-22T02:24:28;101594.56;;;7.37;82.01
46942;BME280;32676;52.630;4.896;2023-02-22T02:27:13;101560.63;;;7.27;82.06
46942;BME280;32676;52.630;4.896;2023-02-22T02:32:56;101531.09;;;7.19;82.10
46942;BME280;32676;52.630;4.896;2023-02-22T02:35:47;101533.69;;;7.22;82.13
46942;BME280;32676;52.630;4.896;2023-02-22T02:38:24;101530.22;;;7.17;82.20
46942;BME280;32676;52.630;4.896;2023-02-22T02:41:00;101505.84;;;7.15;82.08
46942;BME280;32676;52.630;4.896;2023-02-22T02:43:31;101531.09;;;7.21;82.05
46942;BME280;32676;52.630;4.896;2023-02-22T02:46:04;101526.72;;;7.18;82.25
46942;BME280;32676;52.630;4.896;2023-02-22T02:48:34;101501.50;;;7.13;82.16
46942;BME280;32676;52.630;4.896;2023-02-22T02:51:06;101494.56;;;7.10;82.26
46942;BME280;32676;52.630;4.896;2023-02-22T02:53:37;101483.22;;;7.11;82.26
46942;BME280;32676;52.630;4.896;2023-02-22T02:56:06;101490.19;;;7.12;82.39
46942;BME280;32676;52.630;4.896;2023-02-22T02:58:33;101489.31;;;7.13;82.57
46942;BME280;32676;52.630;4.896;2023-02-22T03:01:10;101471.06;;;7.05;82.60
46942;BME280;32676;52.630;4.896;2023-02-22T03:04:06;101483.22;;;7.11;82.80
46942;BME280;32676;52.630;4.896;2023-02-22T03:06:49;101483.22;;;7.11;82.90
46942;BME280;32676;52.630;4.896;2023-02-22T03:09:28;101483.22;;;7.11;82.92
46942;BME280;32676;52.630;4.896;2023-02-22T03:12:08;101497.16;;;7.13;83.06
46942;BME280;32676;52.630;4.896;2023-02-22T03:14:41;101514.56;;;7.17;83.14
46942;BME280;32676;52.630;4.896;2023-02-22T03:17:15;101510.19;;;7.16;83.13
46942;BME280;32676;52.630;4.896;2023-02-22T03:19:50;101504.13;;;7.11;83.11
46942;BME280;32676;52.630;4.896;2023-02-22T03:22:23;101524.97;;;7.20;83.06
46942;BME280;32676;52.630;4.896;2023-02-22T03:24:56;101504.09;;;7.14;83.03
46942;BME280;32676;52.630;4.896;2023-02-22T03:27:27;101486.72;;;7.10;83.16
46942;BME280;32676;52.630;4.896;2023-02-22T03:30:00;101475.41;;;7.09;83.23
46942;BME280;32676;52.630;4.896;2023-02-22T03:32:30;101481.50;;;7.10;83.45
46942;BME280;32676;52.630;4.896;2023-02-22T03:35:03;101467.56;;;7.08;83.40
46942;BME280;32676;52.630;4.896;2023-02-22T03:37:35;101471.97;;;7.06;83.56
46942;BME280;32676;52.630;4.896;2023-02-22T03:40:07;101503.25;;;7.12;83.68
46942;BME280;32676;52.630;4.896;2023-02-22T03:42:41;101498.03;;;7.10;83.83
46942;BME280;32676;52.630;4.896;2023-02-22T03:45:10;101465.84;;;7.04;83.69
46942;BME280;32676;52.630;4.896;2023-02-22T03:47:42;101442.38;;;6.96;83.62
46942;BME280;32676;52.630;4.896;2023-02-22T03:50:15;101445.84;;;7.01;83.69
46942;BME280;32676;52.630;4.896;2023-02-22T03:52:43;101442.38;;;7.02;83.48
46942;BME280;32676;52.630;4.896;2023-02-22T03:55:12;101443.25;;;7.00;83.35
46942;BME280;32676;52.630;4.896;2023-02-22T03:57:44;101426.75;;;6.93;83.60
46942;BME280;32676;52.630;4.896;2023-02-22T04:00:17;101413.66;;;6.95;83.35
46942;BME280;32676;52.630;4.896;2023-02-22T04:02:44;101404.97;;;6.92;83.20
46942;BME280;32676;52.630;4.896;2023-02-22T04:05:12;101392.81;;;6.88;83.09
46942;BME280;32676;52.630;4.896;2023-02-22T04:07:39;101384.16;;;6.80;83.00
46942;BME280;32676;52.630;4.896;2023-02-22T04:10:06;101379.78;;;6.84;83.08
46942;BME280;32676;52.630;4.896;2023-02-22T04:12:32;101394.56;;;6.89;82.89
46942;BME280;32676;52.630;4.896;2023-02-22T04:14:59;101381.53;;;6.83;82.62
46942;BME280;32676;52.630;4.896;2023-02-22T04:17:26;101368.53;;;6.77;82.56
46942;BME280;32676;52.630;4.896;2023-02-22T04:19:53;101375.44;;;6.84;82.46
46942;BME280;32676;52.630;4.896;2023-02-22T04:22:21;101351.09;;;6.79;82.26
46942;BME280;32676;52.630;4.896;2023-02-22T04:24:48;101340.69;;;6.73;82.08
46942;BME280;32676;52.630;4.896;2023-02-22T04:27:14;101351.13;;;6.76;82.11
46942;BME280;32676;52.630;4.896;2023-02-22T04:29:41;101315.50;;;6.67;81.77
46942;BME280;32676;52.630;4.896;2023-02-22T04:32:08;101319.84;;;6.71;81.61
46942;BME280;32676;52.630;4.896;2023-02-22T04:34:34;101311.16;;;6.66;81.45
46942;BME280;32676;52.630;4.896;2023-02-22T04:37:05;101304.19;;;6.67;81.24
46942;BME280;32676;52.630;4.896;2023-02-22T04:39:35;101271.19;;;6.60;80.94
46942;BME280;32676;52.630;4.896;2023-02-22T04:42:02;101257.28;;;6.56;80.96
46942;BME280;32676;52.630;4.896;2023-02-22T04:44:29;101250.34;;;6.53;80.88
46942;BME280;32676;52.630;4.896;2023-02-22T04:46:55;101236.44;;;6.51;80.70
46942;BME280;32676;52.630;4.896;2023-02-22T04:49:22;101219.06;;;6.47;80.95
46942;BME280;32676;52.630;4.896;2023-02-22T04:51:49;101226.03;;;6.48;81.06
46942;BME280;32676;52.630;4.896;2023-02-22T04:54:15;101203.47;;;6.41;81.19
46942;BME280;32676;52.630;4.896;2023-02-22T04:56:44;101195.63;;;6.43;81.37
46942;BME280;32676;52.630;4.896;2023-02-22T04:59:10;101173.06;;;6.36;81.36
46942;BME280;32676;52.630;4.896;2023-02-22T05:01:37;101173.94;;;6.36;81.10
46942;BME280;32676;52.630;4.896;2023-02-22T05:04:04;101147.06;;;6.26;80.90
46942;BME280;32676;52.630;4.896;2023-02-22T05:06:31;101138.31;;;6.29;80.94
46942;BME280;32676;52.630;4.896;2023-02-22T05:08:58;101119.22;;;6.24;80.88
46942;BME280;32676;52.630;4.896;2023-02-22T05:11:24;101102.78;;;6.19;80.95
46942;BME280;32676;52.630;4.896;2023-02-22T05:13:52;101078.50;;;6.10;81.33
46942;BME280;32676;52.630;4.896;2023-02-22T05:16:19;101064.59;;;6.10;81.46
46942;BME280;32676;52.630;4.896;2023-02-22T05:18:45;101036.84;;;6.04;81.38
46942;BME280;32676;52.630;4.896;2023-02-22T05:21:12;101014.28;;;5.97;81.65
46942;BME280;32676;52.630;4.896;2023-02-22T05:23:38;101001.28;;;5.95;81.72
46942;BME280;32676;52.630;4.896;2023-02-22T05:26:05;101005.63;;;5.92;81.84
46942;BME280;32676;52.630;4.896;2023-02-22T05:28:32;100988.25;;;5.89;82.01
46942;BME280;32676;52.630;4.896;2023-02-22T05:31:00;100989.97;;;5.92;82.10
46942;BME280;32676;52.630;4.896;2023-02-22T05:33:26;100979.63;;;5.86;82.37
46942;BME280;32676;52.630;4.896;2023-02-22T05:35:53;100971.78;;;5.86;82.42
46942;BME280;32676;52.630;4.896;2023-02-22T05:38:21;100977.84;;;5.88;82.35
46942;BME280;32676;52.630;4.896;2023-02-22T05:40:47;100963.97;;;5.86;82.51
46942;BME280;32676;52.630;4.896;2023-02-22T05:43:14;100964.81;;;5.86;82.50
46942;BME280;32676;52.630;4.896;2023-02-22T05:45:41;100984.75;;;5.90;82.68
46942;BME280;32676;52.630;4.896;2023-02-22T05:48:09;100985.63;;;5.89;82.76
46942;BME280;32676;52.630;4.896;2023-02-22T05:50:37;100945.81;;;5.75;82.81
46942;BME280;32676;52.630;4.896;2023-02-22T05:53:03;100979.63;;;5.86;82.99
46942;BME280;32676;52.630;4.896;2023-02-22T05:55:30;100974.41;;;5.86;82.90
46942;BME280;32676;52.630;4.896;2023-02-22T05:57:57;100977.81;;;5.89;83.14
46942;BME280;32676;52.630;4.896;2023-02-22T06:00:26;100964.00;;;5.80;83.02
46942;BME280;32676;52.630;4.896;2023-02-22T06:02:54;100979.56;;;5.89;83.15
46942;BME280;32676;52.630;4.896;2023-02-22T06:05:22;100976.97;;;5.87;83.25
46942;BME280;32676;52.630;4.896;2023-02-22T06:07:49;100976.97;;;5.87;83.25
46942;BME280;32676;52.630;4.896;2023-02-22T06:10:16;100988.22;;;5.91;83.36
46942;BME280;32676;52.630;4.896;2023-02-22T06:12:43;100972.66;;;5.85;83.26
46942;BME280;32676;52.630;4.896;2023-02-22T06:15:09;100970.03;;;5.88;83.43
46942;BME280;32676;52.630;4.896;2023-02-22T06:17:36;100968.31;;;5.84;83.49
46942;BME280;32676;52.630;4.896;2023-02-22T06:20:05;100978.69;;;5.88;83.57
46942;BME280;32676;52.630;4.896;2023-02-22T06:22:33;100969.19;;;5.86;83.55
46942;BME280;32676;52.630;4.896;2023-02-22T06:25:01;100968.28;;;5.87;83.58
46942;BME280;32676;52.630;4.896;2023-02-22T06:27:29;100966.59;;;5.84;83.54
46942;BME280;32676;52.630;4.896;2023-02-22T06:29:56;100984.78;;;5.89;83.81
46942;BME280;32676;52.630;4.896;2023-02-22T06:32:22;100984.78;;;5.89;83.89
46942;BME280;32676;52.630;4.896;2023-02-22T06:34:49;100995.22;;;5.89;83.78
46942;BME280;32676;52.630;4.896;2023-02-22T06:37:15;100992.56;;;5.92;83.78
46942;BME280;32676;52.630;4.896;2023-02-22T06:39:43;100990.84;;;5.91;83.62
46942;BME280;32676;52.630;4.896;2023-02-22T06:42:10;100992.66;;;5.86;83.74
46942;BME280;32676;52.630;4.896;2023-02-22T06:44:36;101005.59;;;5.95;83.95
46942;BME280;32676;52.630;4.896;2023-02-22T06:47:03;101003.84;;;5.94;83.83
46942;BME280;32676;52.630;4.896;2023-02-22T06:49:29;100995.22;;;5.89;83.76
46942;BME280;32676;52.630;4.896;2023-02-22T06:51:56;101016.84;;;6.00;83.89
46942;BME280;32676;52.630;4.896;2023-02-22T06:54:23;101013.41;;;5.95;83.99
46942;BME280;32676;52.630;4.896;2023-02-22T06:56:50;101014.28;;;5.94;84.12
46942;BME280;32676;52.630;4.896;2023-02-22T06:59:19;101027.34;;;5.97;84.11
46942;BME280;32676;52.630;4.896;2023-02-22T07:01:45;101029.88;;;6.00;84.21
46942;BME280;32676;52.630;4.896;2023-02-22T07:04:12;101024.72;;;5.97;84.01
46942;BME280;32676;52.630;4.896;2023-02-22T07:06:38;101009.97;;;5.91;84.15
46942;BME280;32676;52.630;4.896;2023-02-22T07:09:04;101029.88;;;6.00;84.10
46942;BME280;32676;52.630;4.896;2023-02-22T07:11:32;101024.72;;;5.97;84.28
46942;BME280;32676;52.630;4.896;2023-02-22T07:13:59;101014.28;;;5.97;84.40
46942;BME280;32676;52.630;4.896;2023-02-22T07:16:26;100992.59;;;5.90;84.23
46942;BME280;32676;52.630;4.896;2023-02-22T07:18:53;100983.06;;;5.88;84.16
46942;BME280;32676;52.630;4.896;2023-02-22T07:21:19;100995.19;;;5.92;84.18
46942;BME280;32676;52.630;4.896;2023-02-22T07:23:50;100991.72;;;5.90;84.08
46942;BME280;32676;52.630;4.896;2023-02-22T07:26:17;100984.78;;;5.89;84.16
46942;BME280;32676;52.630;4.896;2023-02-22T07:28:44;100982.19;;;5.87;84.09
46942;BME280;32676;52.630;4.896;2023-02-22T07:31:12;100986.50;;;5.90;84.19
46942;BME280;32676;52.630;4.896;2023-02-22T07:33:39;101009.94;;;5.96;84.17
46942;BME280;32676;52.630;4.896;2023-02-22T07:36:06;101043.81;;;6.02;84.24
46942;BME280;32676;52.630;4.896;2023-02-22T07:38:32;101055.09;;;6.06;84.11
46942;BME280;32676;52.630;4.896;2023-02-22T07:40:59;101062.88;;;6.07;84.24
46942;BME280;32676;52.630;4.896;2023-02-22T07:43:27;101064.59;;;6.08;84.13
46942;BME280;32676;52.630;4.896;2023-02-22T07:45:57;101063.75;;;6.06;83.98
46942;BME280;32676;52.630;4.896;2023-02-22T07:48:26;101050.75;;;6.03;84.19
46942;BME280;32676;52.630;4.896;2023-02-22T07:50:53;101049.03;;;6.02;84.21
46942;BME280;32676;52.630;4.896;2023-02-22T07:53:22;101075.03;;;6.08;84.21
46942;BME280;32676;52.630;4.896;2023-02-22T07:55:49;101104.50;;;6.17;84.25
46942;BME280;32676;52.630;4.896;2023-02-22T07:58:17;101128.81;;;6.22;83.97
46942;BME280;32676;52.630;4.896;2023-02-22T08:00:44;101149.66;;;6.28;84.19
46942;BME280;32676;52.630;4.896;2023-02-22T08:03:14;101186.13;;;6.37;83.97
46942;BME280;32676;52.630;4.896;2023-02-22T08:05:45;101196.50;;;6.40;84.03
46942;BME280;32676;52.630;4.896;2023-02-22T08:08:12;101202.59;;;6.42;83.97
46942;BME280;32676;52.630;4.896;2023-02-22T08:10:40;101184.38;;;6.33;83.93
46942;BME280;32676;52.630;4.896;2023-02-22T08:13:07;101210.44;;;6.42;83.79
46942;BME280;32676;52.630;4.896;2023-02-22T08:15:35;101210.44;;;6.42;83.78
46942;BME280;32676;52.630;4.896;2023-02-22T08:18:05;101196.56;;;6.32;83.71
46942;BME280;32676;52.630;4.896;2023-02-22T08:20:33;101233.00;;;6.48;83.75
46942;BME280;32676;52.630;4.896;2023-02-22T08:23:02;101229.56;;;6.44;83.85
46942;BME280;32676;52.630;4.896;2023-02-22T08:25:29;101253.88;;;6.49;83.67
46942;BME280;32676;52.630;4.896;2023-02-22T08:27:57;101301.59;;;6.64;83.65
46942;BME280;32676;52.630;4.896;2023-02-22T08:30:27;101316.34;;;6.71;83.58
46942;BME280;32676;52.630;4.896;2023-02-22T08:32:54;101333.75;;;6.72;83.40
46942;BME280;32676;52.630;4.896;2023-02-22T08:35:21;101354.63;;;6.73;83.33
46942;BME280;32676;52.630;4.896;2023-02-22T08:37:50;101363.25;;;6.80;83.36
46942;BME280;32676;52.630;4.896;2023-02-22T08:40:20;101363.25;;;6.80;83.30
46942;BME280;32676;52.630;4.896;2023-02-22T08:42:47;101373.72;;;6.80;83.33
46942;BME280;32676;52.630;4.896;2023-02-22T08:45:15;101368.50;;;6.80;83.63
46942;BME280;32676;52.630;4.896;2023-02-22T08:47:42;101369.38;;;6.81;83.37
46942;BME280;32676;52.630;4.896;2023-02-22T08:50:15;101371.09;;;6.80;83.28
46942;BME280;32676;52.630;4.896;2023-02-22T08:52:42;101401.50;;;6.90;83.31
46942;BME280;32676;52.630;4.896;2023-02-22T08:55:09;101417.19;;;6.90;83.21
46942;BME280;32676;52.630;4.896;2023-02-22T08:57:37;101435.44;;;6.95;83.09
46942;BME280;32676;52.630;4.896;2023-02-22T09:00:05;101420.66;;;6.92;82.93
46942;BME280;32676;52.630;4.896;2023-02-22T09:02:32;101414.56;;;6.90;82.90
46942;BME280;32676;52.630;4.896;2023-02-22T09:04:59;101393.75;;;6.78;82.78
46942;BME280;32676;52.630;4.896;2023-02-22T09:07:25;101411.97;;;6.87;82.82
46942;BME280;32676;52.630;4.896;2023-02-22T09:09:52;101429.38;;;6.91;82.76
46942;BME280;32676;52.630;4.896;2023-02-22T09:12:18;101464.13;;;7.03;82.83
46942;BME280;32676;52.630;4.896;2023-02-22T09:14:47;101491.97;;;7.07;82.86
46942;BME280;32676;52.630;4.896;2023-02-22T09:17:14;101505.03;;;7.10;83.12
46942;BME280;32676;52.630;4.896;2023-02-22T09:19:40;101491.09;;;7.05;82.70
46942;BME280;32676;52.630;4.896;2023-02-22T09:22:07;101511.09;;;7.12;82.65
46942;BME280;32676;52.630;4.896;2023-02-22T09:24:33;101501.56;;;7.08;82.95
46942;BME280;32676;52.630;4.896;2023-02-22T09:27:00;101552.84;;;7.21;82.59
46942;BME280;32676;52.630;4.896;2023-02-22T09:29:29;101551.09;;;7.20;82.45
46942;BME280;32676;52.630;4.896;2023-02-22T09:31:57;101553.78;;;7.13;82.67
46942;BME280;32676;52.630;4.896;2023-02-22T09:34:24;101585.91;;;7.32;82.58
46942;BME280;32676;52.630;4.896;2023-02-22T09:36:54;101581.53;;;7.32;82.37
46942;BME280;32676;52.630;4.896;2023-02-22T09:39:20;101596.31;;;7.35;82.35
46942;BME280;32676;52.630;4.896;2023-02-22T09:41:52;101608.53;;;7.39;82.46
46942;BME280;32676;52.630;4.896;2023-02-22T09:44:23;101598.06;;;7.33;82.38
46942;BME280;32676;52.630;4.896;2023-02-22T09:46:57;101599.84;;;7.34;82.16
46942;BME280;32676;52.630;4.896;2023-02-22T09:49:32;101603.28;;;7.36;82.02
46942;BME280;32676;52.630;4.896;2023-02-22T09:52:06;101603.28;;;7.36;81.93
46942;BME280;32676;52.630;4.896;2023-02-22T09:54:37;101593.75;;;7.27;82.25
46942;BME280;32676;52.630;4.896;2023-02-22T09:57:09;101629.38;;;7.42;82.04
46942;BME280;32676;52.630;4.896;2023-02-22T09:59:40;101638.97;;;7.44;81.80
46942;BME280;32676;52.630;4.896;2023-02-22T10:02:19;101653.78;;;7.47;81.91
46942;BME280;32676;52.630;4.896;2023-02-22T10:04:53;101667.69;;;7.54;81.96
46942;BME280;32676;52.630;4.896;2023-02-22T10:07:28;101690.31;;;7.56;81.89
46942;BME280;32676;52.630;4.896;2023-02-22T10:09:57;101686.84;;;7.54;81.73
46942;BME280;32676;52.630;4.896;2023-02-22T10:12:36;101709.47;;;7.61;81.56
46942;BME280;32676;52.630;4.896;2023-02-22T10:15:19;101737.34;;;7.65;81.35
46942;BME280;32676;52.630;4.896;2023-02-22T10:18:00;101782.63;;;7.78;81.54
46942;BME280;32676;52.630;4.896;2023-02-22T10:20:38;101819.19;;;7.89;81.27
46942;BME280;32676;52.630;4.896;2023-02-22T10:23:14;101867.16;;;7.99;81.45
46942;BME280;32676;52.630;4.896;2023-02-22T10:25:51;101887.19;;;8.01;81.30
46942;BME280;32676;52.630;4.896;2023-02-22T10:28:24;101936.00;;;8.16;81.29
46942;BME280;32676;52.630;4.896;2023-02-22T10:30:57;101940.34;;;8.19;81.15
46942;BME280;32676;52.630;4.896;2023-02-22T10:33:29;101960.41;;;8.23;80.85
46942;BME280;32676;52.630;4.896;2023-02-22T10:35:59;101972.63;;;8.18;80.38
46942;BME280;32676;52.630;4.896;2023-02-22T10:38:27;102002.25;;;8.32;80.29
46942;BME280;32676;52.630;4.896;2023-02-22T10:40:57;102039.78;;;8.42;80.16
46942;BME280;32676;52.630;4.896;2023-02-22T10:43:26;102077.31;;;8.49;79.75
46942;BME280;32676;52.630;4.896;2023-02-22T10:45:55;102093.03;;;8.52;79.62
46942;BME280;32676;52.630;4.896;2023-02-22T10:48:24;102117.44;;;8.60;79.52
46942;BME280;32676;52.630;4.896;2023-02-22T10:50:58;102127.91;;;8.63;79.36
46942;BME280;32676;52.630;4.896;2023-02-22T10:53:27;102143.66;;;8.66;79.20
46942;BME280;32676;52.630;4.896;2023-02-22T10:56:15;102180.31;;;8.75;79.07
46942;BME280;32676;52.630;4.896;2023-02-22T10:58:46;102214.34;;;8.81;78.98
46942;BME280;32676;52.630;4.896;2023-02-22T11:01:24;102236.19;;;8.87;78.82
46942;BME280;32676;52.630;4.896;2023-02-22T11:03:59;102263.25;;;8.93;78.92
46942;BME280;32676;52.630;4.896;2023-02-22T11:06:29;102281.59;;;8.99;78.76
46942;BME280;32676;52.630;4.896;2023-02-22T11:09:12;102304.28;;;9.05;78.27
46942;BME280;32676;52.630;4.896;2023-02-22T11:11:40;102314.78;;;9.05;78.28
46942;BME280;32676;52.630;4.896;2023-02-22T11:14:07;102300.81;;;9.03;78.12
46942;BME280;32676;52.630;4.896;2023-02-22T11:16:37;102325.28;;;9.08;77.87
46942;BME280;32676;52.630;4.896;2023-02-22T11:19:15;102325.28;;;9.08;77.41
46942;BME280;32676;52.630;4.896;2023-02-22T11:21:47;102318.25;;;9.07;77.32
46942;BME280;32676;52.630;4.896;2023-02-22T11:24:16;102345.38;;;9.15;76.96
46942;BME280;32676;52.630;4.896;2023-02-22T11:26:46;102311.28;;;9.03;77.29
46942;BME280;32676;52.630;4.896;2023-02-22T11:29:19;102317.41;;;9.07;77.23
46942;BME280;32676;52.630;4.896;2023-02-22T11:31:48;102327.00;;;9.12;77.56
46942;BME280;32676;52.630;4.896;2023-02-22T11:34:27;102323.50;;;9.10;77.72
46942;BME280;32676;52.630;4.896;2023-02-22T11:37:15;102329.63;;;9.12;77.55
46942;BME280;32676;52.630;4.896;2023-02-22T11:39:41;102313.03;;;9.07;77.38
46942;BME280;32676;52.630;4.896;2023-02-22T11:42:20;102322.63;;;9.11;77.69
46942;BME280;32676;52.630;4.896;2023-02-22T11:44:49;102320.00;;;9.11;78.00
46942;BME280;32676;52.630;4.896;2023-02-22T11:47:32;102314.78;;;9.08;78.61
46942;BME280;32676;52.630;4.896;2023-02-22T11:49:59;102296.41;;;9.03;78.37
46942;BME280;32676;52.630;4.896;2023-02-22T11:52:32;102304.28;;;9.07;78.59
46942;BME280;32676;52.630;4.896;2023-02-22T11:55:13;102299.91;;;9.06;78.87
46942;BME280;32676;52.630;4.896;2023-02-22T11:57:54;102295.56;;;9.05;78.99
46942;BME280;32676;52.630;4.896;2023-02-22T12:00:30;102297.31;;;9.04;79.07
46942;BME280;32676;52.630;4.896;2023-02-22T12:03:33;102293.81;;;9.05;79.20
46942;BME280;32676;52.630;4.896;2023-02-22T12:06:10;102310.41;;;9.07;78.96
46942;BME280;32676;52.630;4.896;2023-02-22T12:08:55;102323.53;;;9.13;79.23
46942;BME280;32676;52.630;4.896;2023-02-22T12:11:32;102338.38;;;9.16;79.17
46942;BME280;32676;52.630;4.896;2023-02-22T12:14:11;102340.13;;;9.15;78.87
46942;BME280;32676;52.630;4.896;2023-02-22T12:16:58;102354.09;;;9.17;78.79
46942;BME280;32676;52.630;4.896;2023-02-22T12:19:34;102372.44;;;9.23;78.57
46942;BME280;32676;52.630;4.896;2023-02-22T12:22:06;102366.31;;;9.18;78.38
46942;BME280;32676;52.630;4.896;2023-02-22T12:24:40;102389.03;;;9.26;78.28
46942;BME280;32676;52.630;4.896;2023-02-22T12:27:10;102382.94;;;9.28;78.12
46942;BME280;32676;52.630;4.896;2023-02-22T12:29:42;102407.41;;;9.32;77.90
46942;BME280;32676;52.630;4.896;2023-02-22T12:32:14;102429.28;;;9.37;78.00
46942;BME280;32676;52.630;4.896;2023-02-22T12:34:44;102455.50;;;9.46;77.64
46942;BME280;32676;52.630;4.896;2023-02-22T12:37:17;102479.06;;;9.49;77.36
46942;BME280;32676;52.630;4.896;2023-02-22T12:39:54;102501.81;;;9.55;77.24
46942;BME280;32676;52.630;4.896;2023-02-22T12:42:27;102521.06;;;9.58;77.23
46942;BME280;32676;52.630;4.896;2023-02-22T12:44:59;102535.06;;;9.64;76.67
46942;BME280;32676;52.630;4.896;2023-02-22T12:47:31;102552.53;;;9.69;76.26
46942;BME280;32676;52.630;4.896;2023-02-22T12:50:05;102557.81;;;9.65;75.85
46942;BME280;32676;52.630;4.896;2023-02-22T12:52:42;102573.56;;;9.74;75.14
46942;BME280;32676;52.630;4.896;2023-02-22T12:55:16;102582.31;;;9.70;74.87
46942;BME280;32676;52.630;4.896;2023-02-22T12:57:49;102624.31;;;9.85;74.87
46942;BME280;32676;52.630;4.896;2023-02-22T13:00:20;102633.03;;;9.86;74.69
46942;BME280;32676;52.630;4.896;2023-02-22T13:02:56;102674.19;;;9.96;74.45
46942;BME280;32676;52.630;4.896;2023-02-22T13:05:24;102704.84;;;10.05;73.91
46942;BME280;32676;52.630;4.896;2023-02-22T13:08:01;102710.97;;;10.05;73.61
46942;BME280;32676;52.630;4.896;2023-02-22T13:10:55;102711.81;;;10.06;73.47
46942;BME280;32676;52.630;4.896;2023-02-22T13:13:40;102718.84;;;10.10;73.31
46942;BME280;32676;52.630;4.896;2023-02-22T13:16:17;102734.59;;;10.13;72.94
46942;BME280;32676;52.630;4.896;2023-02-22T13:18:50;102740.72;;;10.15;72.82